• Join FlightAware (Why Join?)
  • Login
  • US Flag 
05:39PM EDT


 

Airport Tracker/Info


-or-


 

Live Flight TrackerFlight Track Log ✈ SWA1182 ✈ 27-Oct-2013 ✈ KMDW - KSTL

Flight Track Log - Related Links

Times and Time Zones

All times are in EDT time to prevent confusion due to time zone crossing. See the SWA1182 flight status page for this flight to view local times or setup timezone preferences in your user account.

Time Position Orientation Groundspeed Altitude Reporting Facility
EDT Latitude Longitude Course Direction KTS MPH feet Rate Location/Type
02:05PM 41.7667 -87.7667 223° Southwest 145 167 1,800  Level Chicago TRACON
02:06PM 41.7489 -87.7892 223° Southwest 178 205 2,800 1,740 Climbing Chicago Center
02:07PM 41.6953 -87.8383 214° Southwest 240 276 5,000 1,380 Climbing Chicago Center
02:08PM 41.6192 -87.8881 206° Southwest 251 289 5,700 2,160 Climbing Chicago Center
02:09PM 41.5503 -87.9336 206° Southwest 267 307 9,500 3,240 Climbing Chicago Center
02:10PM 41.4744 -87.9850 207° Southwest 297 342 12,500 3,180 Climbing Chicago Center
02:11PM 41.3772 -88.0442 205° Southwest 346 398 16,200 3,240 Climbing Chicago Center
02:12PM 41.2775 -88.0739 193° South 365 420 19,300 2,820 Climbing Chicago Center
02:13PM 41.1703 -88.0928 188° South 388 447 22,100 2,820 Climbing Chicago Center
02:14PM 41.0583 -88.1067 185° South 399 459 25,200 1,860 Climbing Chicago Center
02:15PM 40.9261 -88.1239 186° South 400 460 26,000 360 Climbing Chicago Center
02:16PM 40.8275 -88.1803 203° Southwest 385 443 26,000  Level Chicago Center
02:17PM 40.7286 -88.2383 204° Southwest 387 445 26,000  Level Chicago Center
02:18PM 40.6286 -88.2947 203° Southwest 391 450 26,000  Level Chicago Center
02:19PM 40.5297 -88.3525 204° Southwest 391 450 26,000  Level Chicago Center
02:21PM 40.4306 -88.4100 204° Southwest 391 450 26,000  Level Chicago Center
02:22PM 40.3111 -88.4789 204° Southwest 392 451 26,000  Level Chicago Center
02:23PM 40.2222 -88.5286 203° Southwest 392 451 26,000  Level Chicago Center
02:24PM 40.1211 -88.5867 204° Southwest 393 452 26,000  Level Chicago Center
02:25PM 40.0011 -88.6539 203° Southwest 390 449 26,000  Level Chicago Center
02:26PM 39.9011 -88.7114 204° Southwest 392 451 26,000  Level Chicago Center
02:27PM 39.7919 -88.7375 190° South 399 459 26,000  Level Chicago Center
02:28PM 39.6814 -88.7486 184° South 399 459 26,000  Level Kansas City Center
02:29PM 39.5706 -88.7622 185° South 398 458 26,000  Level Kansas City Center
02:30PM 39.4617 -88.7742 185° South 397 457 26,000  Level Kansas City Center
02:31PM 39.3528 -88.7897 186° South 394 453 26,000 -300 Level Kansas City Center
02:32PM 39.2808 -88.8894 227° Southwest 378 435 25,500 -1,440 Descending Kansas City Center
02:33PM 39.2097 -88.9925 228° Southwest 383 441 23,100 -2,400 Descending Kansas City Center
02:34PM 39.1272 -89.1111 228° Southwest 375 432 20,600 -2,280 Descending Kansas City Center
02:35PM 39.0767 -89.2292 241° Southwest 355 409 18,400 -2,040 Descending Kansas City Center
02:36PM 39.0506 -89.3486 254° West 348 400 16,500 -2,040 Descending Kansas City Center
02:37PM 39.0231 -89.4739 254° West 341 392 14,300 -2,040 Descending Kansas City Center
02:38PM 38.9964 -89.5864 253° West 333 383 12,300 -2,040 Descending Kansas City Center
02:39PM 38.9300 -89.6772 227° Southwest 323 372 10,100 -1,140 Descending Kansas City Center
02:40PM 38.8719 -89.7500 224° Southwest 304 350 10,000 -720 Descending Kansas City Center
02:41PM 38.8211 -89.8150 225° Southwest 266 306 8,700 -1,500 Descending Kansas City Center
02:42PM 38.7794 -89.8886 234° Southwest 257 296 7,000 -1,320 Descending Kansas City Center
02:43PM 38.7397 -89.9661 237° Southwest 258 297 6,000 -1,140 Descending Kansas City Center
02:44PM 38.6981 -90.0433 235° Southwest 261 300 4,700 -1,260 Descending Kansas City Center
02:45PM 38.6778 -90.1319 254° West 263 303 3,500 -780 Descending Kansas City Center
02:46PM 38.6792 -90.2200 271° West 234 269 3,100 -780 Descending Kansas City Center
02:47PM 38.7072 -90.2739 304° West 202 232 1,900 -1,020 Descending Kansas City Center
02:48PM 38.7283 -90.3189 301° West 167 192 1,100 -660 Descending Kansas City Center
02:49PM 38.7514 -90.3656 302° West 153 176 600 -540 Descending Kansas City Center
02:51PM 38.7487 -90.3700 126° Southeast  Level Estimated